sensor_id;sensor_type;location;lat;lon;timestamp;P1;durP1;ratioP1;P2;durP2;ratioP2
8268;SDS011;4174;48.304;16.364;2024-03-06T00:01:53;24.93;;;10.47;;
8268;SDS011;4174;48.304;16.364;2024-03-06T00:07:56;24.48;;;10.40;;
8268;SDS011;4174;48.304;16.364;2024-03-06T00:14:00;24.60;;;10.43;;
8268;SDS011;4174;48.304;16.364;2024-03-06T00:20:05;28.67;;;11.40;;
8268;SDS011;4174;48.304;16.364;2024-03-06T00:26:11;28.33;;;12.00;;
8268;SDS011;4174;48.304;16.364;2024-03-06T00:32:14;26.40;;;11.90;;
8268;SDS011;4174;48.304;16.364;2024-03-06T00:38:17;24.77;;;11.47;;
8268;SDS011;4174;48.304;16.364;2024-03-06T00:44:21;27.52;;;11.02;;
8268;SDS011;4174;48.304;16.364;2024-03-06T00:50:25;27.07;;;11.60;;
8268;SDS011;4174;48.304;16.364;2024-03-06T00:56:29;27.33;;;11.30;;
8268;SDS011;4174;48.304;16.364;2024-03-06T01:02:32;26.55;;;11.12;;
8268;SDS011;4174;48.304;16.364;2024-03-06T01:08:35;27.67;;;11.53;;
8268;SDS011;4174;48.304;16.364;2024-03-06T01:14:39;26.33;;;11.53;;
8268;SDS011;4174;48.304;16.364;2024-03-06T01:20:43;30.33;;;12.07;;
8268;SDS011;4174;48.304;16.364;2024-03-06T01:26:46;28.37;;;11.90;;
8268;SDS011;4174;48.304;16.364;2024-03-06T01:32:50;28.60;;;12.17;;
8268;SDS011;4174;48.304;16.364;2024-03-06T01:38:55;27.67;;;12.30;;
8268;SDS011;4174;48.304;16.364;2024-03-06T01:44:58;28.40;;;12.23;;
8268;SDS011;4174;48.304;16.364;2024-03-06T01:51:02;30.47;;;12.60;;
8268;SDS011;4174;48.304;16.364;2024-03-06T01:57:05;30.77;;;13.10;;
8268;SDS011;4174;48.304;16.364;2024-03-06T02:03:09;27.97;;;12.47;;
8268;SDS011;4174;48.304;16.364;2024-03-06T02:09:12;31.43;;;13.57;;
8268;SDS011;4174;48.304;16.364;2024-03-06T02:15:14;33.55;;;13.68;;
8268;SDS011;4174;48.304;16.364;2024-03-06T02:21:18;30.93;;;12.90;;
8268;SDS011;4174;48.304;16.364;2024-03-06T02:27:21;32.08;;;13.15;;
8268;SDS011;4174;48.304;16.364;2024-03-06T02:33:24;33.97;;;13.57;;
8268;SDS011;4174;48.304;16.364;2024-03-06T02:39:29;36.58;;;13.95;;
8268;SDS011;4174;48.304;16.364;2024-03-06T02:45:32;35.20;;;14.53;;
8268;SDS011;4174;48.304;16.364;2024-03-06T02:51:36;36.83;;;14.93;;
8268;SDS011;4174;48.304;16.364;2024-03-06T02:57:40;38.10;;;14.83;;
8268;SDS011;4174;48.304;16.364;2024-03-06T03:03:44;37.45;;;14.90;;
8268;SDS011;4174;48.304;16.364;2024-03-06T03:09:48;35.30;;;14.83;;
8268;SDS011;4174;48.304;16.364;2024-03-06T03:15:51;36.80;;;14.90;;
8268;SDS011;4174;48.304;16.364;2024-03-06T03:21:55;40.08;;;15.63;;
8268;SDS011;4174;48.304;16.364;2024-03-06T03:27:59;39.10;;;14.93;;
8268;SDS011;4174;48.304;16.364;2024-03-06T03:34:04;41.10;;;15.88;;
8268;SDS011;4174;48.304;16.364;2024-03-06T03:40:07;42.90;;;15.38;;
8268;SDS011;4174;48.304;16.364;2024-03-06T03:46:11;41.63;;;15.13;;
8268;SDS011;4174;48.304;16.364;2024-03-06T03:52:15;42.05;;;15.80;;
8268;SDS011;4174;48.304;16.364;2024-03-06T03:58:20;42.67;;;15.27;;
8268;SDS011;4174;48.304;16.364;2024-03-06T04:04:24;40.90;;;15.20;;
8268;SDS011;4174;48.304;16.364;2024-03-06T04:10:27;41.67;;;15.25;;
8268;SDS011;4174;48.304;16.364;2024-03-06T04:16:31;40.03;;;14.23;;
8268;SDS011;4174;48.304;16.364;2024-03-06T04:22:35;39.58;;;14.70;;
8268;SDS011;4174;48.304;16.364;2024-03-06T04:28:39;37.17;;;14.37;;
8268;SDS011;4174;48.304;16.364;2024-03-06T04:34:43;38.25;;;13.75;;
8268;SDS011;4174;48.304;16.364;2024-03-06T04:40:47;38.63;;;14.33;;
8268;SDS011;4174;48.304;16.364;2024-03-06T04:46:50;37.67;;;14.33;;
8268;SDS011;4174;48.304;16.364;2024-03-06T04:52:55;36.67;;;14.02;;
8268;SDS011;4174;48.304;16.364;2024-03-06T04:58:58;33.80;;;13.07;;
8268;SDS011;4174;48.304;16.364;2024-03-06T05:05:02;35.90;;;13.13;;
8268;SDS011;4174;48.304;16.364;2024-03-06T05:11:06;35.13;;;13.13;;
8268;SDS011;4174;48.304;16.364;2024-03-06T05:17:11;33.57;;;12.83;;
8268;SDS011;4174;48.304;16.364;2024-03-06T05:23:14;34.85;;;12.77;;
8268;SDS011;4174;48.304;16.364;2024-03-06T05:29:18;31.40;;;12.43;;
8268;SDS011;4174;48.304;16.364;2024-03-06T05:35:22;32.80;;;12.80;;
8268;SDS011;4174;48.304;16.364;2024-03-06T05:41:26;32.60;;;12.60;;
8268;SDS011;4174;48.304;16.364;2024-03-06T05:47:32;32.70;;;12.68;;
8268;SDS011;4174;48.304;16.364;2024-03-06T05:53:37;31.23;;;12.10;;
8268;SDS011;4174;48.304;16.364;2024-03-06T05:59:40;32.95;;;11.82;;
8268;SDS011;4174;48.304;16.364;2024-03-06T06:05:43;31.37;;;11.90;;
8268;SDS011;4174;48.304;16.364;2024-03-06T06:11:47;28.80;;;11.25;;
8268;SDS011;4174;48.304;16.364;2024-03-06T06:17:51;27.33;;;11.17;;
8268;SDS011;4174;48.304;16.364;2024-03-06T06:23:54;29.73;;;10.60;;
8268;SDS011;4174;48.304;16.364;2024-03-06T06:29:58;28.33;;;10.77;;
8268;SDS011;4174;48.304;16.364;2024-03-06T06:36:02;26.80;;;10.50;;
8268;SDS011;4174;48.304;16.364;2024-03-06T06:42:07;27.58;;;10.93;;
8268;SDS011;4174;48.304;16.364;2024-03-06T06:48:09;26.58;;;10.68;;
8268;SDS011;4174;48.304;16.364;2024-03-06T06:54:13;25.03;;;10.47;;
8268;SDS011;4174;48.304;16.364;2024-03-06T07:00:18;27.20;;;10.57;;
8268;SDS011;4174;48.304;16.364;2024-03-06T07:06:22;28.62;;;10.43;;
8268;SDS011;4174;48.304;16.364;2024-03-06T07:12:26;22.97;;;10.07;;
8268;SDS011;4174;48.304;16.364;2024-03-06T07:18:29;24.60;;;10.55;;
8268;SDS011;4174;48.304;16.364;2024-03-06T07:24:33;27.03;;;10.60;;
8268;SDS011;4174;48.304;16.364;2024-03-06T07:30:36;25.50;;;10.20;;
8268;SDS011;4174;48.304;16.364;2024-03-06T07:36:40;25.00;;;9.82;;
8268;SDS011;4174;48.304;16.364;2024-03-06T07:42:44;25.20;;;10.30;;
8268;SDS011;4174;48.304;16.364;2024-03-06T07:48:48;25.40;;;9.73;;
8268;SDS011;4174;48.304;16.364;2024-03-06T07:54:51;24.70;;;10.43;;
8268;SDS011;4174;48.304;16.364;2024-03-06T08:00:55;25.67;;;10.50;;
8268;SDS011;4174;48.304;16.364;2024-03-06T08:06:58;26.33;;;10.50;;
8268;SDS011;4174;48.304;16.364;2024-03-06T08:13:02;25.30;;;10.23;;
8268;SDS011;4174;48.304;16.364;2024-03-06T08:19:05;27.33;;;11.00;;
8268;SDS011;4174;48.304;16.364;2024-03-06T08:25:10;28.03;;;11.03;;
8268;SDS011;4174;48.304;16.364;2024-03-06T08:31:12;26.47;;;11.23;;
8268;SDS011;4174;48.304;16.364;2024-03-06T08:37:17;27.00;;;11.18;;
8268;SDS011;4174;48.304;16.364;2024-03-06T08:43:21;26.07;;;10.90;;
8268;SDS011;4174;48.304;16.364;2024-03-06T08:49:24;24.95;;;10.82;;
8268;SDS011;4174;48.304;16.364;2024-03-06T08:55:29;24.40;;;11.00;;
8268;SDS011;4174;48.304;16.364;2024-03-06T09:01:32;24.10;;;11.07;;
8268;SDS011;4174;48.304;16.364;2024-03-06T09:07:36;25.58;;;11.07;;
8268;SDS011;4174;48.304;16.364;2024-03-06T09:13:38;24.20;;;11.00;;
8268;SDS011;4174;48.304;16.364;2024-03-06T09:19:42;27.27;;;11.23;;
8268;SDS011;4174;48.304;16.364;2024-03-06T09:25:47;25.33;;;10.80;;
8268;SDS011;4174;48.304;16.364;2024-03-06T09:31:53;24.02;;;10.55;;
8268;SDS011;4174;48.304;16.364;2024-03-06T09:37:56;21.52;;;10.23;;
8268;SDS011;4174;48.304;16.364;2024-03-06T09:44:00;21.60;;;9.63;;
8268;SDS011;4174;48.304;16.364;2024-03-06T09:50:06;20.40;;;8.77;;
8268;SDS011;4174;48.304;16.364;2024-03-06T09:56:10;19.40;;;8.80;;
8268;SDS011;4174;48.304;16.364;2024-03-06T10:02:19;19.40;;;8.70;;
8268;SDS011;4174;48.304;16.364;2024-03-06T10:08:20;18.30;;;8.02;;
8268;SDS011;4174;48.304;16.364;2024-03-06T10:14:26;17.10;;;7.70;;
8268;SDS011;4174;48.304;16.364;2024-03-06T10:20:30;20.37;;;8.55;;
8268;SDS011;4174;48.304;16.364;2024-03-06T10:26:33;20.35;;;8.13;;
8268;SDS011;4174;48.304;16.364;2024-03-06T10:32:38;18.05;;;8.23;;
8268;SDS011;4174;48.304;16.364;2024-03-06T10:38:41;17.67;;;8.10;;
8268;SDS011;4174;48.304;16.364;2024-03-06T10:44:49;17.53;;;8.13;;
8268;SDS011;4174;48.304;16.364;2024-03-06T10:50:50;15.50;;;7.57;;
8268;SDS011;4174;48.304;16.364;2024-03-06T10:56:53;17.27;;;7.90;;
8268;SDS011;4174;48.304;16.364;2024-03-06T11:02:56;17.17;;;7.67;;
8268;SDS011;4174;48.304;16.364;2024-03-06T11:09:00;16.60;;;8.00;;
8268;SDS011;4174;48.304;16.364;2024-03-06T11:27:55;19.70;;;8.98;;
8268;SDS011;4174;48.304;16.364;2024-03-06T11:33:39;19.90;;;8.33;;
8268;SDS011;4174;48.304;16.364;2024-03-06T11:39:41;19.70;;;9.23;;
8268;SDS011;4174;48.304;16.364;2024-03-06T11:45:45;19.90;;;9.30;;
8268;SDS011;4174;48.304;16.364;2024-03-06T11:51:50;21.30;;;9.40;;
8268;SDS011;4174;48.304;16.364;2024-03-06T11:57:54;20.40;;;9.17;;
8268;SDS011;4174;48.304;16.364;2024-03-06T12:03:57;23.02;;;10.05;;
8268;SDS011;4174;48.304;16.364;2024-03-06T12:10:02;21.10;;;9.80;;
8268;SDS011;4174;48.304;16.364;2024-03-06T12:16:08;22.40;;;9.70;;
8268;SDS011;4174;48.304;16.364;2024-03-06T12:22:13;19.95;;;9.25;;
8268;SDS011;4174;48.304;16.364;2024-03-06T12:28:23;21.05;;;9.30;;
8268;SDS011;4174;48.304;16.364;2024-03-06T12:34:22;20.12;;;8.93;;
8268;SDS011;4174;48.304;16.364;2024-03-06T12:40:26;24.10;;;9.65;;
8268;SDS011;4174;48.304;16.364;2024-03-06T12:46:30;23.17;;;9.65;;
8268;SDS011;4174;48.304;16.364;2024-03-06T12:52:34;20.88;;;9.40;;
8268;SDS011;4174;48.304;16.364;2024-03-06T12:58:37;22.00;;;8.98;;
8268;SDS011;4174;48.304;16.364;2024-03-06T13:04:41;22.60;;;9.33;;
8268;SDS011;4174;48.304;16.364;2024-03-06T13:10:44;20.80;;;8.60;;
8268;SDS011;4174;48.304;16.364;2024-03-06T13:16:49;21.23;;;9.00;;
8268;SDS011;4174;48.304;16.364;2024-03-06T13:22:53;20.67;;;8.60;;
8268;SDS011;4174;48.304;16.364;2024-03-06T13:28:56;21.53;;;9.47;;
8268;SDS011;4174;48.304;16.364;2024-03-06T13:35:00;21.75;;;8.98;;
8268;SDS011;4174;48.304;16.364;2024-03-06T13:41:05;20.50;;;8.93;;
8268;SDS011;4174;48.304;16.364;2024-03-06T13:47:14;21.00;;;8.70;;
8268;SDS011;4174;48.304;16.364;2024-03-06T13:53:12;22.60;;;9.38;;
8268;SDS011;4174;48.304;16.364;2024-03-06T13:59:15;19.10;;;8.43;;
8268;SDS011;4174;48.304;16.364;2024-03-06T14:05:21;18.77;;;8.00;;
8268;SDS011;4174;48.304;16.364;2024-03-06T14:11:26;21.80;;;8.63;;
8268;SDS011;4174;48.304;16.364;2024-03-06T14:17:30;19.37;;;8.48;;
8268;SDS011;4174;48.304;16.364;2024-03-06T14:23:34;20.15;;;7.93;;
8268;SDS011;4174;48.304;16.364;2024-03-06T14:29:37;16.67;;;7.20;;
8268;SDS011;4174;48.304;16.364;2024-03-06T14:35:42;17.52;;;7.62;;
8268;SDS011;4174;48.304;16.364;2024-03-06T14:41:45;19.23;;;7.93;;
8268;SDS011;4174;48.304;16.364;2024-03-06T14:47:50;19.50;;;8.03;;
8268;SDS011;4174;48.304;16.364;2024-03-06T14:53:53;16.95;;;7.18;;
8268;SDS011;4174;48.304;16.364;2024-03-06T14:59:57;18.27;;;7.37;;
8268;SDS011;4174;48.304;16.364;2024-03-06T15:06:00;18.03;;;7.20;;
8268;SDS011;4174;48.304;16.364;2024-03-06T15:12:06;16.57;;;6.90;;
8268;SDS011;4174;48.304;16.364;2024-03-06T15:18:11;18.07;;;7.40;;
8268;SDS011;4174;48.304;16.364;2024-03-06T15:24:14;17.62;;;6.60;;
8268;SDS011;4174;48.304;16.364;2024-03-06T15:30:18;17.40;;;7.10;;
8268;SDS011;4174;48.304;16.364;2024-03-06T15:36:21;16.63;;;7.27;;
8268;SDS011;4174;48.304;16.364;2024-03-06T15:42:25;17.45;;;6.97;;
8268;SDS011;4174;48.304;16.364;2024-03-06T15:48:29;16.85;;;7.35;;
8268;SDS011;4174;48.304;16.364;2024-03-06T15:54:33;16.90;;;7.07;;
8268;SDS011;4174;48.304;16.364;2024-03-06T16:00:36;17.70;;;7.67;;
8268;SDS011;4174;48.304;16.364;2024-03-06T16:06:41;18.85;;;7.65;;
8268;SDS011;4174;48.304;16.364;2024-03-06T16:12:45;18.75;;;7.55;;
8268;SDS011;4174;48.304;16.364;2024-03-06T16:18:49;19.67;;;8.13;;
8268;SDS011;4174;48.304;16.364;2024-03-06T16:24:53;19.33;;;7.90;;
8268;SDS011;4174;48.304;16.364;2024-03-06T16:30:56;19.87;;;8.10;;
8268;SDS011;4174;48.304;16.364;2024-03-06T16:37:00;20.90;;;8.70;;
8268;SDS011;4174;48.304;16.364;2024-03-06T16:43:04;18.03;;;7.97;;
8268;SDS011;4174;48.304;16.364;2024-03-06T16:49:08;19.87;;;8.57;;
8268;SDS011;4174;48.304;16.364;2024-03-06T16:55:12;23.73;;;8.83;;
8268;SDS011;4174;48.304;16.364;2024-03-06T17:01:15;21.75;;;8.60;;
8268;SDS011;4174;48.304;16.364;2024-03-06T17:07:21;22.98;;;9.20;;
8268;SDS011;4174;48.304;16.364;2024-03-06T17:13:25;21.00;;;9.23;;
8268;SDS011;4174;48.304;16.364;2024-03-06T17:19:29;22.80;;;9.03;;
8268;SDS011;4174;48.304;16.364;2024-03-06T17:25:33;22.27;;;9.07;;
8268;SDS011;4174;48.304;16.364;2024-03-06T17:31:36;23.60;;;9.07;;
8268;SDS011;4174;48.304;16.364;2024-03-06T17:37:40;21.70;;;8.50;;
8268;SDS011;4174;48.304;16.364;2024-03-06T17:43:44;25.13;;;9.20;;
8268;SDS011;4174;48.304;16.364;2024-03-06T17:49:48;20.83;;;9.23;;
8268;SDS011;4174;48.304;16.364;2024-03-06T17:55:52;22.73;;;9.18;;
8268;SDS011;4174;48.304;16.364;2024-03-06T18:01:56;25.30;;;9.98;;
8268;SDS011;4174;48.304;16.364;2024-03-06T18:08:00;22.80;;;9.77;;
8268;SDS011;4174;48.304;16.364;2024-03-06T18:14:03;23.03;;;8.90;;
8268;SDS011;4174;48.304;16.364;2024-03-06T18:20:07;23.20;;;9.35;;
8268;SDS011;4174;48.304;16.364;2024-03-06T18:26:11;21.17;;;8.67;;
8268;SDS011;4174;48.304;16.364;2024-03-06T18:32:15;22.43;;;8.70;;
8268;SDS011;4174;48.304;16.364;2024-03-06T18:38:20;19.95;;;8.73;;
8268;SDS011;4174;48.304;16.364;2024-03-06T18:44:24;20.20;;;8.63;;
8268;SDS011;4174;48.304;16.364;2024-03-06T18:50:27;20.33;;;9.00;;
8268;SDS011;4174;48.304;16.364;2024-03-06T18:56:32;20.30;;;8.40;;
8268;SDS011;4174;48.304;16.364;2024-03-06T19:02:36;19.27;;;8.60;;
8268;SDS011;4174;48.304;16.364;2024-03-06T19:08:38;20.33;;;9.20;;
8268;SDS011;4174;48.304;16.364;2024-03-06T19:14:42;20.23;;;8.80;;
8268;SDS011;4174;48.304;16.364;2024-03-06T19:20:45;22.50;;;8.93;;
8268;SDS011;4174;48.304;16.364;2024-03-06T19:26:49;21.00;;;8.70;;
8268;SDS011;4174;48.304;16.364;2024-03-06T19:32:51;20.77;;;8.73;;
8268;SDS011;4174;48.304;16.364;2024-03-06T19:38:55;18.93;;;8.40;;
8268;SDS011;4174;48.304;16.364;2024-03-06T19:44:59;22.73;;;9.50;;
8268;SDS011;4174;48.304;16.364;2024-03-06T19:51:04;19.75;;;8.90;;
8268;SDS011;4174;48.304;16.364;2024-03-06T19:57:08;20.73;;;9.30;;
8268;SDS011;4174;48.304;16.364;2024-03-06T20:03:12;20.87;;;9.10;;
8268;SDS011;4174;48.304;16.364;2024-03-06T20:09:15;21.73;;;9.07;;
8268;SDS011;4174;48.304;16.364;2024-03-06T20:15:19;20.03;;;9.20;;
8268;SDS011;4174;48.304;16.364;2024-03-06T20:21:23;21.87;;;9.75;;
8268;SDS011;4174;48.304;16.364;2024-03-06T20:27:27;22.37;;;9.87;;
8268;SDS011;4174;48.304;16.364;2024-03-06T20:33:31;23.27;;;10.30;;
8268;SDS011;4174;48.304;16.364;2024-03-06T20:39:35;25.88;;;10.40;;
8268;SDS011;4174;48.304;16.364;2024-03-06T20:45:38;23.43;;;10.20;;
8268;SDS011;4174;48.304;16.364;2024-03-06T20:51:43;24.90;;;10.48;;
8268;SDS011;4174;48.304;16.364;2024-03-06T20:57:47;24.98;;;10.77;;
8268;SDS011;4174;48.304;16.364;2024-03-06T21:03:50;25.07;;;10.63;;
8268;SDS011;4174;48.304;16.364;2024-03-06T21:09:54;26.83;;;11.05;;
8268;SDS011;4174;48.304;16.364;2024-03-06T21:15:58;23.87;;;10.90;;
8268;SDS011;4174;48.304;16.364;2024-03-06T21:22:02;22.10;;;10.43;;
8268;SDS011;4174;48.304;16.364;2024-03-06T21:28:06;22.33;;;9.80;;
8268;SDS011;4174;48.304;16.364;2024-03-06T21:34:10;22.17;;;9.67;;
8268;SDS011;4174;48.304;16.364;2024-03-06T21:40:13;22.70;;;10.38;;
8268;SDS011;4174;48.304;16.364;2024-03-06T21:46:17;20.67;;;8.98;;
8268;SDS011;4174;48.304;16.364;2024-03-06T21:52:21;20.93;;;9.10;;
8268;SDS011;4174;48.304;16.364;2024-03-06T21:58:24;21.30;;;8.77;;
8268;SDS011;4174;48.304;16.364;2024-03-06T22:04:28;20.87;;;9.20;;
8268;SDS011;4174;48.304;16.364;2024-03-06T22:10:32;21.52;;;9.07;;
8268;SDS011;4174;48.304;16.364;2024-03-06T22:16:35;23.77;;;10.20;;
8268;SDS011;4174;48.304;16.364;2024-03-06T22:22:38;24.85;;;10.25;;
8268;SDS011;4174;48.304;16.364;2024-03-06T22:28:42;25.00;;;10.40;;
8268;SDS011;4174;48.304;16.364;2024-03-06T22:34:45;25.03;;;11.03;;
8268;SDS011;4174;48.304;16.364;2024-03-06T22:40:49;25.20;;;10.73;;
8268;SDS011;4174;48.304;16.364;2024-03-06T22:46:53;24.00;;;10.60;;
8268;SDS011;4174;48.304;16.364;2024-03-06T22:52:57;23.23;;;10.13;;
8268;SDS011;4174;48.304;16.364;2024-03-06T22:59:00;23.07;;;10.13;;
8268;SDS011;4174;48.304;16.364;2024-03-06T23:05:04;24.03;;;9.87;;
8268;SDS011;4174;48.304;16.364;2024-03-06T23:11:09;23.17;;;9.67;;
8268;SDS011;4174;48.304;16.364;2024-03-06T23:17:12;19.27;;;8.67;;
8268;SDS011;4174;48.304;16.364;2024-03-06T23:23:16;19.07;;;7.70;;
8268;SDS011;4174;48.304;16.364;2024-03-06T23:29:21;16.23;;;7.30;;
8268;SDS011;4174;48.304;16.364;2024-03-06T23:35:25;15.10;;;6.65;;
8268;SDS011;4174;48.304;16.364;2024-03-06T23:41:28;15.23;;;6.90;;
8268;SDS011;4174;48.304;16.364;2024-03-06T23:47:32;14.80;;;6.77;;
8268;SDS011;4174;48.304;16.364;2024-03-06T23:53:35;14.03;;;6.40;;
8268;SDS011;4174;48.304;16.364;2024-03-06T23:59:39;14.23;;;6.82;;
